Time;durP1;ratioP1;P1;durP2;ratioP2;P2;SDS_P1;SDS_P2;PMS_P1;PMS_P2;Temp;Humidity;BMP_temperature;BMP_pressure;BME280_temperature;BME280_humidity;BME280_pressure;Samples;Min_cycle;Max_cycle;Signal;HPM_P1;HPM_P2
2023/09/20 00:01:07;;;;;;;;;;;;;;;;;;5142356;27;20050;-42
2023/09/20 00:03:33;;;;;;;0.17;0.17;;;;;;;;;;5142406;27;20029;-42
2023/09/20 00:06:00;;;;;;;0.10;0.10;;;;;;;;;;5141653;27;20050;-42
2023/09/20 00:08:26;;;;;;;0.10;0.10;;;;;;;;;;5142147;27;20101;-42
2023/09/20 00:10:51;;;;;;;0.10;0.10;;;;;;;;;;5141289;27;20150;-42
2023/09/20 00:13:17;;;;;;;0.10;0.10;;;;;;;;;;5141082;27;20054;-42
2023/09/20 00:15:43;;;;;;;0.10;0.10;;;;;;;;;;5141996;27;20054;-42
2023/09/20 00:18:09;;;;;;;0.10;0.10;;;;;;;;;;5127316;27;20287;-43
2023/09/20 00:20:35;;;;;;;0.10;0.10;;;;;;;;;;5128207;28;20039;-43
2023/09/20 00:23:02;;;;;;;0.10;0.10;;;;;;;;;;5128177;28;20108;-42
2023/09/20 00:25:28;;;;;;;0.13;0.13;;;;;;;;;;5127790;28;20562;-44
2023/09/20 00:27:53;;;;;;;0.10;0.10;;;;;;;;;;5127262;28;20134;-43
2023/09/20 00:30:19;;;;;;;0.10;0.10;;;;;;;;;;5126023;27;20035;-43
2023/09/20 00:32:45;;;;;;;0.20;0.20;;;;;;;;;;5142217;27;20051;-42
2023/09/20 00:35:13;;;;;;;0.10;0.10;;;;;;;;;;5126261;28;20047;-42
2023/09/20 00:37:39;;;;;;;0.10;0.10;;;;;;;;;;5127065;28;20125;-43
2023/09/20 00:40:06;;;;;;;0.10;0.10;;;;;;;;;;5127122;28;20058;-42
2023/09/20 00:42:32;;;;;;;0.10;0.10;;;;;;;;;;5127971;27;20100;-42
2023/09/20 00:45:01;;;;;;;0.10;0.10;;;;;;;;;;5127268;28;20130;-43
2023/09/20 00:47:27;;;;;;;0.10;0.10;;;;;;;;;;5126316;28;20175;-42
2023/09/20 00:49:52;;;;;;;0.10;0.10;;;;;;;;;;5125144;28;20047;-42
2023/09/20 00:52:18;;;;;;;0.10;0.10;;;;;;;;;;5126833;28;20062;-42
2023/09/20 00:54:43;;;;;;;0.10;0.10;;;;;;;;;;5127270;28;20510;-43
2023/09/20 00:57:09;;;;;;;0.10;0.10;;;;;;;;;;5127190;28;20047;-43
2023/09/20 00:59:35;;;;;;;0.10;0.10;;;;;;;;;;5126160;27;20247;-43
2023/09/20 01:02:01;;;;;;;0.10;0.10;;;;;;;;;;5126940;28;20145;-43
2023/09/20 01:04:28;;;;;;;0.10;0.10;;;;;;;;;;5127029;28;20048;-42
2023/09/20 01:06:54;;;;;;;0.10;0.10;;;;;;;;;;5126530;28;20825;-42
2023/09/20 01:09:22;;;;;;;0.10;0.10;;;;;;;;;;5126302;28;20476;-43
2023/09/20 01:11:48;;;;;;;0.10;0.10;;;;;;;;;;5126611;28;20067;-43
2023/09/20 01:14:13;;;;;;;0.10;0.10;;;;;;;;;;5127342;28;20126;-42
2023/09/20 01:16:39;;;;;;;0.10;0.10;;;;;;;;;;5127722;28;20128;-42
2023/09/20 01:19:04;;;;;;;0.10;0.10;;;;;;;;;;5126505;28;20048;-41
2023/09/20 01:21:30;;;;;;;0.10;0.10;;;;;;;;;;5126639;28;20043;-42
2023/09/20 01:23:56;;;;;;;0.10;0.10;;;;;;;;;;5127142;28;20047;-42
2023/09/20 01:26:22;;;;;;;0.10;0.10;;;;;;;;;;5126946;28;20051;-42
2023/09/20 01:28:47;;;;;;;0.10;0.10;;;;;;;;;;5125205;27;20514;-44
2023/09/20 01:31:13;;;;;;;0.22;0.22;;;;;;;;;;5127584;27;20084;-42
2023/09/20 01:33:38;;;;;;;0.10;0.10;;;;;;;;;;5126640;28;20432;-42
2023/09/20 01:36:04;;;;;;;0.10;0.10;;;;;;;;;;5125901;28;20043;-43
2023/09/20 01:38:30;;;;;;;0.10;0.10;;;;;;;;;;5125478;28;20579;-43
2023/09/20 01:40:57;;;;;;;0.10;0.10;;;;;;;;;;5124585;28;20054;-42
2023/09/20 01:43:24;;;;;;;0.10;0.10;;;;;;;;;;5126238;27;20050;-42
2023/09/20 01:45:50;;;;;;;0.10;0.10;;;;;;;;;;5125997;28;20459;-43
2023/09/20 01:48:15;;;;;;;0.10;0.10;;;;;;;;;;5126522;28;20143;-42
2023/09/20 01:50:41;;;;;;;0.10;0.10;;;;;;;;;;5126494;28;20560;-42
2023/09/20 01:53:10;;;;;;;0.10;0.10;;;;;;;;;;5126365;28;20039;-43
2023/09/20 01:55:37;;;;;;;0.10;0.10;;;;;;;;;;5126536;28;20068;-42
2023/09/20 01:58:06;;;;;;;0.10;0.10;;;;;;;;;;5125797;27;20096;-44
2023/09/20 02:00:36;;;;;;;0.10;0.10;;;;;;;;;;5125762;28;20054;-42
2023/09/20 02:03:07;;;;;;;0.10;0.10;;;;;;;;;;5126782;28;20483;-42
2023/09/20 02:05:33;;;;;;;0.10;0.10;;;;;;;;;;5126464;28;20125;-42
2023/09/20 02:07:59;;;;;;;0.20;0.20;;;;;;;;;;5127146;28;20538;-42
2023/09/20 02:10:25;;;;;;;0.10;0.10;;;;;;;;;;5126664;28;20188;-43
2023/09/20 02:12:52;;;;;;;0.10;0.10;;;;;;;;;;5126481;28;20057;-43
2023/09/20 02:15:18;;;;;;;0.10;0.10;;;;;;;;;;5127012;28;20047;-42
2023/09/20 02:17:44;;;;;;;0.10;0.10;;;;;;;;;;5125499;28;20092;-43
2023/09/20 02:20:10;;;;;;;0.10;0.10;;;;;;;;;;5125390;28;20492;-43
2023/09/20 02:22:37;;;;;;;0.10;0.10;;;;;;;;;;5125188;28;20059;-42
2023/09/20 02:25:06;;;;;;;0.10;0.10;;;;;;;;;;5124811;28;20517;-42
2023/09/20 02:27:34;;;;;;;0.10;0.10;;;;;;;;;;5125748;28;20473;-43
2023/09/20 02:29:59;;;;;;;0.10;0.10;;;;;;;;;;5124007;27;20062;-43
2023/09/20 02:32:25;;;;;;;0.10;0.10;;;;;;;;;;5133496;27;20051;-42
2023/09/20 02:34:51;;;;;;;0.10;0.10;;;;;;;;;;5125581;28;20059;-42
2023/09/20 02:37:17;;;;;;;0.10;0.10;;;;;;;;;;5125100;28;20050;-42
2023/09/20 02:39:42;;;;;;;0.10;0.10;;;;;;;;;;5125054;27;20047;-42
2023/09/20 02:42:08;;;;;;;0.20;0.20;;;;;;;;;;5124491;27;20051;-42
2023/09/20 02:44:34;;;;;;;0.10;0.10;;;;;;;;;;5124786;28;20384;-43
2023/09/20 02:46:59;;;;;;;0.10;0.10;;;;;;;;;;5125720;28;20043;-42
2023/09/20 02:49:25;;;;;;;0.10;0.10;;;;;;;;;;5125087;28;20366;-43
2023/09/20 02:51:52;;;;;;;0.10;0.10;;;;;;;;;;5125663;28;20104;-43
2023/09/20 02:54:18;;;;;;;0.10;0.10;;;;;;;;;;5125858;28;20079;-42
2023/09/20 02:56:44;;;;;;;0.10;0.10;;;;;;;;;;5125723;28;20294;-43
2023/09/20 02:59:10;;;;;;;0.10;0.10;;;;;;;;;;5125165;27;20429;-42
2023/09/20 03:01:36;;;;;;;0.10;0.10;;;;;;;;;;5125316;28;20047;-42
2023/09/20 03:04:03;;;;;;;0.10;0.10;;;;;;;;;;5124605;28;20054;-44
2023/09/20 03:06:29;;;;;;;0.10;0.10;;;;;;;;;;5125635;28;20119;-44
2023/09/20 03:08:55;;;;;;;0.10;0.10;;;;;;;;;;5125654;28;20445;-44
2023/09/20 03:11:21;;;;;;;0.10;0.10;;;;;;;;;;5125658;28;20100;-42
2023/09/20 03:13:48;;;;;;;0.10;0.10;;;;;;;;;;5126655;28;20454;-42
2023/09/20 03:16:21;;;;;;;0.10;0.10;;;;;;;;;;5126284;28;20051;-42
2023/09/20 03:18:49;;;;;;;0.10;0.10;;;;;;;;;;5125777;28;20475;-42
2023/09/20 03:21:15;;;;;;;0.10;0.10;;;;;;;;;;5124224;28;20051;-42
2023/09/20 03:23:42;;;;;;;0.10;0.10;;;;;;;;;;5124354;28;20047;-43
2023/09/20 03:26:08;;;;;;;0.10;0.10;;;;;;;;;;5123916;28;20523;-42
2023/09/20 03:28:35;;;;;;;0.10;0.10;;;;;;;;;;5121255;28;20161;-45
2023/09/20 03:31:05;;;;;;;0.10;0.10;;;;;;;;;;5110802;27;20055;-42
2023/09/20 03:33:31;;;;;;;0.10;0.10;;;;;;;;;;5134406;27;20108;-42
2023/09/20 03:35:58;;;;;;;0.10;0.10;;;;;;;;;;5125191;28;20050;-43
2023/09/20 03:38:24;;;;;;;0.10;0.10;;;;;;;;;;5125194;28;20067;-43
2023/09/20 03:40:49;;;;;;;0.10;0.10;;;;;;;;;;5123982;28;20058;-42
2023/09/20 03:43:15;;;;;;;0.10;0.10;;;;;;;;;;5125331;27;20448;-42
2023/09/20 03:45:41;;;;;;;0.10;0.10;;;;;;;;;;5124461;28;20563;-42
2023/09/20 03:48:07;;;;;;;0.10;0.10;;;;;;;;;;5124181;28;20043;-45
2023/09/20 03:50:33;;;;;;;0.10;0.10;;;;;;;;;;5124432;28;20059;-42
2023/09/20 03:53:00;;;;;;;0.10;0.10;;;;;;;;;;5126578;27;20047;-43
2023/09/20 03:55:26;;;;;;;0.10;0.10;;;;;;;;;;5128726;28;20115;-42
2023/09/20 03:57:52;;;;;;;0.10;0.10;;;;;;;;;;5128077;27;20043;-43
2023/09/20 04:00:24;;;;;;;0.10;0.10;;;;;;;;;;5128435;28;20403;-42
2023/09/20 04:02:52;;;;;;;0.10;0.10;;;;;;;;;;5128684;28;20463;-42
2023/09/20 04:05:19;;;;;;;0.10;0.10;;;;;;;;;;5128605;28;20066;-43
2023/09/20 04:08:06;;;;;;;0.10;0.10;;;;;;;;;;5112526;28;20086;-44
2023/09/20 04:10:33;;;;;;;0.10;0.10;;;;;;;;;;5127525;28;20428;-42
2023/09/20 04:12:59;;;;;;;0.47;0.40;;;;;;;;;;5127950;28;20048;-42
2023/09/20 04:15:24;;;;;;;0.10;0.10;;;;;;;;;;5128161;28;20487;-42
2023/09/20 04:17:51;;;;;;;0.10;0.10;;;;;;;;;;5127416;28;20047;-42
2023/09/20 04:20:20;;;;;;;0.10;0.10;;;;;;;;;;5127662;28;20055;-42
2023/09/20 04:22:46;;;;;;;0.10;0.10;;;;;;;;;;5109816;28;20057;-43
2023/09/20 04:25:12;;;;;;;0.10;0.10;;;;;;;;;;5128204;28;20043;-44
2023/09/20 04:27:37;;;;;;;0.10;0.10;;;;;;;;;;5118415;28;20053;-42
2023/09/20 04:30:03;;;;;;;0.10;0.10;;;;;;;;;;5127641;27;20119;-42
2023/09/20 04:32:29;;;;;;;0.10;0.10;;;;;;;;;;5142616;27;20054;-42
2023/09/20 04:34:56;;;;;;;0.10;0.10;;;;;;;;;;5147613;27;20464;-43
2023/09/20 04:37:23;;;;;;;0.10;0.10;;;;;;;;;;5129452;27;20051;-42
2023/09/20 04:39:49;;;;;;;0.10;0.10;;;;;;;;;;5127344;28;20374;-42
2023/09/20 04:42:15;;;;;;;0.10;0.10;;;;;;;;;;5126879;27;20062;-44
2023/09/20 04:44:41;;;;;;;0.10;0.10;;;;;;;;;;5127403;28;20043;-42
2023/09/20 04:47:07;;;;;;;0.10;0.10;;;;;;;;;;5126807;28;20058;-43
2023/09/20 04:49:33;;;;;;;0.10;0.10;;;;;;;;;;5127092;28;20035;-43
2023/09/20 04:52:00;;;;;;;0.10;0.10;;;;;;;;;;5127212;28;20415;-44
2023/09/20 04:54:27;;;;;;;0.10;0.10;;;;;;;;;;5119903;27;20039;-42
2023/09/20 04:56:53;;;;;;;0.10;0.10;;;;;;;;;;5120496;28;20088;-43
2023/09/20 04:59:19;;;;;;;0.10;0.10;;;;;;;;;;5105398;27;20115;-42
2023/09/20 05:01:44;;;;;;;0.10;0.10;;;;;;;;;;5124653;28;20179;-42
2023/09/20 05:04:13;;;;;;;0.10;0.10;;;;;;;;;;5124993;27;20061;-43
2023/09/20 05:06:40;;;;;;;0.10;0.10;;;;;;;;;;5126967;28;20054;-42
2023/09/20 05:09:06;;;;;;;0.10;0.10;;;;;;;;;;5126124;28;20077;-42
2023/09/20 05:11:31;;;;;;;0.10;0.10;;;;;;;;;;5126014;28;20043;-42
2023/09/20 05:13:57;;;;;;;0.10;0.10;;;;;;;;;;5126046;28;20049;-44
2023/09/20 05:16:22;;;;;;;0.10;0.10;;;;;;;;;;5127105;28;20055;-43
2023/09/20 05:18:48;;;;;;;0.10;0.10;;;;;;;;;;5123423;27;20463;-42
2023/09/20 05:21:13;;;;;;;0.20;0.20;;;;;;;;;;5124479;27;20047;-42
2023/09/20 05:23:40;;;;;;;0.10;0.10;;;;;;;;;;5119796;27;20077;-44
2023/09/20 05:26:06;;;;;;;0.10;0.10;;;;;;;;;;5128895;27;20100;-42
2023/09/20 05:28:31;;;;;;;0.10;0.10;;;;;;;;;;5111989;27;20080;-44
2023/09/20 05:30:57;;;;;;;0.10;0.10;;;;;;;;;;5124079;27;20069;-43
2023/09/20 05:33:23;;;;;;;0.10;0.10;;;;;;;;;;5113511;27;20039;-42
2023/09/20 05:35:49;;;;;;;0.10;0.10;;;;;;;;;;5119643;27;20047;-44
2023/09/20 05:38:17;;;;;;;0.10;0.10;;;;;;;;;;5119275;27;20050;-44
2023/09/20 05:40:43;;;;;;;0.10;0.10;;;;;;;;;;5117913;27;20051;-42
2023/09/20 05:43:09;;;;;;;0.10;0.10;;;;;;;;;;5121297;27;20035;-45
2023/09/20 05:45:35;;;;;;;0.10;0.10;;;;;;;;;;5120911;28;20508;-43
2023/09/20 05:48:01;;;;;;;0.10;0.10;;;;;;;;;;5119092;27;20082;-45
2023/09/20 05:50:34;;;;;;;0.10;0.10;;;;;;;;;;5116741;27;20050;-42
2023/09/20 05:53:01;;;;;;;0.10;0.10;;;;;;;;;;5111258;27;20053;-45
2023/09/20 05:55:31;;;;;;;0.10;0.10;;;;;;;;;;5119269;27;20043;-43
2023/09/20 05:57:57;;;;;;;0.10;0.10;;;;;;;;;;5100553;27;20096;-44
2023/09/20 06:00:22;;;;;;;0.10;0.10;;;;;;;;;;5101282;27;20047;-43
2023/09/20 06:02:49;;;;;;;0.10;0.10;;;;;;;;;;5111066;27;20496;-43
2023/09/20 06:05:15;;;;;;;0.10;0.10;;;;;;;;;;5088430;28;20078;-44
2023/09/20 06:07:44;;;;;;;0.10;0.10;;;;;;;;;;5095723;27;20051;-42
2023/09/20 06:10:10;;;;;;;0.10;0.10;;;;;;;;;;5103098;27;20801;-42
2023/09/20 06:12:36;;;;;;;0.10;0.10;;;;;;;;;;5111218;27;20061;-42
2023/09/20 06:15:02;;;;;;;0.10;0.10;;;;;;;;;;5110053;27;20708;-42
2023/09/20 06:17:29;;;;;;;0.10;0.10;;;;;;;;;;5114113;27;20403;-44
2023/09/20 06:19:57;;;;;;;0.10;0.10;;;;;;;;;;5108758;27;20091;-43
2023/09/20 06:22:27;;;;;;;0.17;0.17;;;;;;;;;;5120349;27;20176;-42
2023/09/20 06:24:53;;;;;;;0.10;0.10;;;;;;;;;;5106194;27;20054;-42
2023/09/20 06:27:20;;;;;;;0.10;0.10;;;;;;;;;;5114780;27;20420;-42
2023/09/20 06:29:45;;;;;;;0.10;0.10;;;;;;;;;;5117493;27;20071;-43
2023/09/20 06:32:12;;;;;;;0.10;0.10;;;;;;;;;;5120345;27;20070;-44
2023/09/20 06:34:38;;;;;;;0.10;0.10;;;;;;;;;;5121303;27;20126;-43
2023/09/20 06:37:22;;;;;;;0.10;0.10;;;;;;;;;;5120313;27;20043;-42
2023/09/20 06:39:47;;;;;;;0.10;0.10;;;;;;;;;;5121220;27;20071;-44
2023/09/20 06:42:14;;;;;;;0.10;0.10;;;;;;;;;;5114563;27;20093;-41
2023/09/20 06:44:39;;;;;;;0.10;0.10;;;;;;;;;;5120582;27;20054;-42
2023/09/20 06:47:06;;;;;;;0.10;0.10;;;;;;;;;;5120055;27;20051;-43
2023/09/20 06:49:32;;;;;;;0.10;0.10;;;;;;;;;;5117651;27;20043;-42
2023/09/20 06:52:01;;;;;;;0.10;0.10;;;;;;;;;;5110046;27;20476;-43
2023/09/20 06:54:28;;;;;;;0.10;0.10;;;;;;;;;;5101870;27;20039;-42
2023/09/20 06:57:02;;;;;;;0.10;0.10;;;;;;;;;;5103549;27;20039;-44
2023/09/20 06:59:28;;;;;;;0.10;0.10;;;;;;;;;;5107835;27;20050;-42
2023/09/20 07:01:55;;;;;;;0.10;0.10;;;;;;;;;;5092368;27;20046;-43
2023/09/20 07:04:21;;;;;;;0.10;0.10;;;;;;;;;;5093883;27;20063;-42
2023/09/20 07:06:46;;;;;;;0.20;0.20;;;;;;;;;;5097514;27;20040;-43
2023/09/20 07:09:12;;;;;;;0.10;0.10;;;;;;;;;;5094565;27;20134;-43
2023/09/20 07:11:37;;;;;;;0.10;0.10;;;;;;;;;;5102244;27;20043;-42
2023/09/20 07:14:05;;;;;;;0.10;0.10;;;;;;;;;;5112809;27;20393;-42
2023/09/20 07:16:31;;;;;;;;;;;;;;;;;;5113777;27;22390;-44
2023/09/20 07:18:58;;;;;;;0.10;0.10;;;;;;;;;;5108631;27;19923;-44
2023/09/20 07:21:24;;;;;;;0.10;0.10;;;;;;;;;;5112244;27;20207;-41
2023/09/20 07:23:49;;;;;;;0.10;0.10;;;;;;;;;;5104399;28;20111;-42
2023/09/20 07:26:15;;;;;;;0.10;0.10;;;;;;;;;;5113053;27;20043;-42
2023/09/20 07:28:43;;;;;;;0.10;0.10;;;;;;;;;;5114723;27;20062;-42
2023/09/20 07:31:09;;;;;;;0.10;0.10;;;;;;;;;;5114401;27;20366;-42
2023/09/20 07:33:38;;;;;;;0.10;0.10;;;;;;;;;;5120536;28;20055;-42
2023/09/20 07:36:05;;;;;;;0.10;0.10;;;;;;;;;;5124176;28;20487;-42
2023/09/20 07:38:32;;;;;;;0.10;0.10;;;;;;;;;;5119576;28;20109;-42
2023/09/20 07:41:12;;;;;;;0.10;0.10;;;;;;;;;;5117999;27;20523;-44
2023/09/20 07:43:38;;;;;;;0.10;0.10;;;;;;;;;;5122303;28;20047;-44
2023/09/20 07:46:07;;;;;;;0.10;0.10;;;;;;;;;;5124074;28;20116;-43
2023/09/20 07:48:34;;;;;;;0.10;0.10;;;;;;;;;;5123800;27;20675;-42
2023/09/20 07:51:04;;;;;;;0.10;0.10;;;;;;;;;;5123954;28;20042;-43
2023/09/20 07:53:30;;;;;;;0.10;0.10;;;;;;;;;;5119703;28;20247;-42
2023/09/20 07:55:57;;;;;;;0.10;0.10;;;;;;;;;;5124204;27;20054;-43
2023/09/20 07:58:23;;;;;;;0.10;0.10;;;;;;;;;;5107982;27;20076;-45
2023/09/20 08:00:52;;;;;;;0.10;0.10;;;;;;;;;;5109359;27;20553;-42
2023/09/20 08:03:20;;;;;;;0.10;0.10;;;;;;;;;;5109081;28;20050;-43
2023/09/20 08:05:47;;;;;;;0.10;0.10;;;;;;;;;;5108088;28;20105;-42
2023/09/20 08:08:13;;;;;;;0.10;0.10;;;;;;;;;;5105313;27;20982;-42
2023/09/20 08:10:40;;;;;;;0.10;0.10;;;;;;;;;;5111454;27;20031;-42
2023/09/20 08:13:06;;;;;;;0.10;0.10;;;;;;;;;;5102070;27;20043;-42
2023/09/20 08:15:36;;;;;;;0.10;0.10;;;;;;;;;;5109609;28;20525;-43
2023/09/20 08:20:48;;;;;;;0.10;0.10;;;;;;;;;;5085925;27;20051;-42
2023/09/20 09:02:12;;;;;;;0.10;0.10;;;;;;;;;;5103600;28;20294;-42
2023/09/20 09:04:38;;;;;;;0.10;0.10;;;;;;;;;;5121511;28;20082;-43
2023/09/20 09:07:04;;;;;;;0.10;0.10;;;;;;;;;;5117973;28;20640;-44
2023/09/20 09:09:30;;;;;;;0.10;0.10;;;;;;;;;;5123876;28;20054;-42
2023/09/20 09:11:57;;;;;;;0.10;0.10;;;;;;;;;;5121331;28;20054;-43
2023/09/20 09:14:24;;;;;;;0.10;0.10;;;;;;;;;;5104520;28;20071;-42
2023/09/20 09:16:59;;;;;;;0.10;0.10;;;;;;;;;;5123022;27;20518;-42
2023/09/20 09:19:24;;;;;;;0.10;0.10;;;;;;;;;;5123650;28;20055;-47
2023/09/20 09:21:50;;;;;;;0.10;0.10;;;;;;;;;;5121376;28;20564;-42
2023/09/20 09:24:16;;;;;;;0.10;0.10;;;;;;;;;;5121319;28;20054;-43
2023/09/20 09:26:45;;;;;;;0.10;0.10;;;;;;;;;;5124101;27;20464;-42
2023/09/20 09:29:16;;;;;;;0.10;0.10;;;;;;;;;;5115281;28;20043;-43
2023/09/20 09:31:46;;;;;;;0.10;0.10;;;;;;;;;;5117445;28;20411;-41
2023/09/20 09:34:12;;;;;;;0.10;0.10;;;;;;;;;;5111301;27;20045;-42
2023/09/20 09:36:38;;;;;;;0.10;0.10;;;;;;;;;;5114333;27;20058;-44
2023/09/20 09:39:09;;;;;;;0.10;0.10;;;;;;;;;;5101125;27;20130;-42
2023/09/20 09:41:51;;;;;;;0.10;0.10;;;;;;;;;;5108982;27;20039;-43
2023/09/20 09:44:17;;;;;;;0.10;0.10;;;;;;;;;;5109076;27;20054;-42
2023/09/20 09:46:43;;;;;;;0.10;0.10;;;;;;;;;;5106897;27;20048;-41
2023/09/20 09:49:10;;;;;;;0.10;0.10;;;;;;;;;;5110247;27;20074;-42
2023/09/20 09:51:41;;;;;;;0.10;0.10;;;;;;;;;;5113819;27;20112;-42
2023/09/20 09:54:07;;;;;;;0.20;0.20;;;;;;;;;;5111396;27;20047;-43
2023/09/20 09:56:37;;;;;;;0.10;0.10;;;;;;;;;;5114557;28;20039;-41
2023/09/20 09:59:04;;;;;;;0.00;0.00;;;;;;;;;;5110792;27;20043;-42
2023/09/20 10:01:30;;;;;;;0.10;0.10;;;;;;;;;;5111875;28;20074;-42
2023/09/20 10:03:58;;;;;;;0.10;0.10;;;;;;;;;;5113200;28;20752;-42
2023/09/20 10:06:27;;;;;;;0.10;0.10;;;;;;;;;;5118910;27;20383;-45
2023/09/20 10:08:53;;;;;;;0.10;0.10;;;;;;;;;;5101895;28;20231;-42
2023/09/20 10:11:21;;;;;;;0.10;0.10;;;;;;;;;;5117271;27;20047;-42
2023/09/20 10:13:47;;;;;;;0.10;0.10;;;;;;;;;;5117411;27;20456;-42
2023/09/20 10:16:18;;;;;;;0.10;0.10;;;;;;;;;;5119733;28;20035;-43
2023/09/20 10:18:53;;;;;;;0.10;0.10;;;;;;;;;;5118731;28;20054;-43
2023/09/20 10:21:27;;;;;;;0.10;0.10;;;;;;;;;;5111327;27;20091;-41
2023/09/20 10:23:54;;;;;;;0.10;0.10;;;;;;;;;;5114946;28;20044;-42
2023/09/20 10:26:20;;;;;;;0.10;0.10;;;;;;;;;;5117142;27;20039;-43
2023/09/20 10:28:47;;;;;;;0.10;0.10;;;;;;;;;;5112418;27;20043;-42
2023/09/20 10:31:20;;;;;;;0.10;0.10;;;;;;;;;;5115752;28;20437;-42
2023/09/20 10:33:46;;;;;;;0.10;0.10;;;;;;;;;;5109371;27;20082;-42
2023/09/20 10:36:18;;;;;;;0.10;0.10;;;;;;;;;;5103630;27;20155;-41
2023/09/20 10:38:45;;;;;;;0.10;0.10;;;;;;;;;;5112077;27;20319;-42
2023/09/20 10:41:12;;;;;;;0.10;0.10;;;;;;;;;;5109765;27;20075;-42
2023/09/20 10:43:41;;;;;;;0.10;0.10;;;;;;;;;;5096514;27;20051;-44
2023/09/20 10:46:08;;;;;;;0.10;0.10;;;;;;;;;;5106229;27;20285;-44
2023/09/20 10:48:33;;;;;;;0.10;0.10;;;;;;;;;;5113983;28;20050;-41
2023/09/20 10:51:00;;;;;;;0.10;0.10;;;;;;;;;;5107521;27;20035;-42
2023/09/20 10:53:47;;;;;;;0.10;0.10;;;;;;;;;;5110217;27;20142;-42
2023/09/20 10:56:32;;;;;;;0.10;0.10;;;;;;;;;;5095972;28;20043;-43
2023/09/20 10:58:59;;;;;;;0.10;0.10;;;;;;;;;;5098026;27;20104;-42
2023/09/20 11:01:25;;;;;;;0.10;0.10;;;;;;;;;;5113955;27;20046;-42
2023/09/20 11:03:51;;;;;;;0.10;0.10;;;;;;;;;;5114711;27;20069;-42
2023/09/20 11:06:16;;;;;;;0.10;0.10;;;;;;;;;;5107271;27;20089;-42
2023/09/20 11:08:43;;;;;;;0.10;0.10;;;;;;;;;;5105314;27;20054;-42
2023/09/20 11:11:14;;;;;;;0.10;0.10;;;;;;;;;;5110221;27;20447;-42
2023/09/20 11:13:45;;;;;;;0.10;0.10;;;;;;;;;;5117841;27;20677;-42
2023/09/20 11:16:13;;;;;;;0.10;0.10;;;;;;;;;;5098026;28;20084;-42
2023/09/20 11:18:41;;;;;;;0.10;0.10;;;;;;;;;;5117427;27;20496;-42
2023/09/20 11:21:07;;;;;;;0.10;0.10;;;;;;;;;;5116304;28;20062;-43
2023/09/20 11:23:33;;;;;;;0.10;0.10;;;;;;;;;;5115359;27;20050;-41
2023/09/20 11:25:59;;;;;;;0.10;0.10;;;;;;;;;;5108366;27;21143;-42
2023/09/20 11:28:27;;;;;;;0.10;0.10;;;;;;;;;;5104434;27;20837;-42
2023/09/20 11:30:52;;;;;;;0.10;0.10;;;;;;;;;;5109832;27;20043;-44
2023/09/20 11:33:33;;;;;;;0.10;0.10;;;;;;;;;;5113626;27;20105;-42
2023/09/20 11:35:59;;;;;;;0.10;0.10;;;;;;;;;;5103115;27;20047;-43
2023/09/20 11:38:25;;;;;;;0.10;0.10;;;;;;;;;;5100950;27;20130;-42
2023/09/20 11:40:51;;;;;;;0.10;0.10;;;;;;;;;;5106013;27;20051;-43
2023/09/20 11:43:17;;;;;;;0.10;0.10;;;;;;;;;;5114132;27;20058;-44
2023/09/20 11:45:46;;;;;;;0.10;0.10;;;;;;;;;;5108843;27;20047;-42
2023/09/20 11:48:27;;;;;;;0.10;0.10;;;;;;;;;;5119989;27;20393;-43
2023/09/20 11:50:53;;;;;;;0.10;0.10;;;;;;;;;;5113926;27;20698;-42
2023/09/20 11:53:19;;;;;;;0.10;0.10;;;;;;;;;;5119681;28;20476;-42
2023/09/20 11:55:45;;;;;;;0.10;0.10;;;;;;;;;;5115780;27;20508;-42
2023/09/20 11:58:11;;;;;;;0.10;0.10;;;;;;;;;;5121272;27;20154;-42
2023/09/20 12:00:36;;;;;;;0.10;0.10;;;;;;;;;;5101798;27;20043;-42
2023/09/20 12:03:03;;;;;;;0.10;0.10;;;;;;;;;;5112176;27;20043;-41
2023/09/20 12:05:29;;;;;;;0.00;0.00;;;;;;;;;;5107875;27;20062;-42
2023/09/20 12:07:56;;;;;;;0.10;0.10;;;;;;;;;;5109172;27;20051;-41
2023/09/20 12:10:22;;;;;;;0.10;0.10;;;;;;;;;;5106959;27;20051;-42
2023/09/20 12:12:49;;;;;;;0.10;0.10;;;;;;;;;;5110823;27;20046;-41
2023/09/20 12:15:15;;;;;;;0.10;0.10;;;;;;;;;;5122808;28;20054;-42
2023/09/20 12:17:40;;;;;;;0.10;0.10;;;;;;;;;;5118871;27;20047;-41
2023/09/20 12:20:06;;;;;;;0.10;0.10;;;;;;;;;;5116947;27;20119;-42
2023/09/20 12:22:32;;;;;;;0.10;0.10;;;;;;;;;;5113173;27;20043;-43
2023/09/20 12:24:58;;;;;;;0.10;0.10;;;;;;;;;;5119043;27;20055;-42
2023/09/20 12:27:24;;;;;;;0.10;0.10;;;;;;;;;;5115110;27;20517;-41
2023/09/20 12:29:49;;;;;;;0.10;0.10;;;;;;;;;;5111424;27;20047;-43
2023/09/20 12:32:15;;;;;;;0.10;0.10;;;;;;;;;;5111507;27;20206;-42
2023/09/20 12:34:41;;;;;;;0.10;0.10;;;;;;;;;;5114313;27;20105;-42
2023/09/20 12:37:07;;;;;;;0.10;0.10;;;;;;;;;;5114293;27;20039;-41
2023/09/20 12:39:36;;;;;;;0.10;0.10;;;;;;;;;;5109051;27;20676;-42
2023/09/20 12:42:04;;;;;;;0.10;0.10;;;;;;;;;;5108553;27;20513;-44
2023/09/20 12:44:31;;;;;;;0.10;0.10;;;;;;;;;;5110843;27;20570;-42
2023/09/20 12:46:57;;;;;;;0.10;0.10;;;;;;;;;;5137362;27;20251;-42
2023/09/20 12:49:23;;;;;;;0.10;0.10;;;;;;;;;;5123653;27;20126;-43
2023/09/20 12:51:49;;;;;;;0.10;0.10;;;;;;;;;;5118868;27;20104;-41
2023/09/20 12:54:16;;;;;;;0.10;0.10;;;;;;;;;;5122279;27;20179;-42
2023/09/20 12:56:41;;;;;;;0.10;0.10;;;;;;;;;;5121063;27;20347;-42
2023/09/20 12:59:07;;;;;;;0.10;0.10;;;;;;;;;;5123275;28;20388;-42
2023/09/20 13:01:33;;;;;;;0.10;0.10;;;;;;;;;;5122115;28;20074;-42
2023/09/20 13:03:59;;;;;;;0.10;0.10;;;;;;;;;;5124472;28;20078;-42
2023/09/20 13:06:26;;;;;;;0.10;0.10;;;;;;;;;;5112816;27;20048;-45
2023/09/20 13:08:52;;;;;;;0.10;0.10;;;;;;;;;;5127066;27;20078;-42
2023/09/20 13:11:17;;;;;;;0.10;0.10;;;;;;;;;;5126314;28;20481;-42
2023/09/20 13:13:43;;;;;;;0.10;0.10;;;;;;;;;;5125474;28;20494;-42
2023/09/20 13:16:09;;;;;;;0.10;0.10;;;;;;;;;;5125682;28;20118;-41
2023/09/20 13:18:38;;;;;;;0.10;0.10;;;;;;;;;;5126392;28;20039;-44
2023/09/20 13:21:04;;;;;;;0.10;0.10;;;;;;;;;;5123212;28;20094;-42
2023/09/20 13:23:30;;;;;;;0.10;0.10;;;;;;;;;;5126271;27;20458;-44
2023/09/20 13:25:58;;;;;;;;;;;;;;;;;;5127669;27;20043;-42
2023/09/20 13:28:23;;;;;;;0.10;0.10;;;;;;;;;;5133532;27;20340;-42
2023/09/20 13:30:51;;;;;;;0.10;0.10;;;;;;;;;;5122730;27;20084;-45
2023/09/20 13:33:17;;;;;;;0.10;0.10;;;;;;;;;;5115519;28;20635;-43
2023/09/20 13:35:42;;;;;;;0.10;0.10;;;;;;;;;;5122452;28;20057;-43
2023/09/20 13:38:09;;;;;;;0.10;0.10;;;;;;;;;;5120066;28;20083;-41
2023/09/20 13:40:36;;;;;;;0.10;0.10;;;;;;;;;;5123873;28;20146;-41
2023/09/20 13:43:01;;;;;;;0.10;0.10;;;;;;;;;;5122545;28;20056;-41
2023/09/20 13:45:27;;;;;;;0.10;0.10;;;;;;;;;;5126156;28;20051;-43
2023/09/20 13:47:52;;;;;;;0.10;0.10;;;;;;;;;;5126608;28;20050;-41
2023/09/20 13:50:18;;;;;;;0.10;0.10;;;;;;;;;;5125127;28;20062;-42
2023/09/20 13:52:44;;;;;;;0.10;0.10;;;;;;;;;;5125245;28;20082;-42
2023/09/20 13:55:13;;;;;;;0.10;0.10;;;;;;;;;;5126735;28;20132;-42
2023/09/20 13:57:39;;;;;;;0.10;0.10;;;;;;;;;;5126978;28;20043;-45
2023/09/20 14:00:11;;;;;;;0.10;0.10;;;;;;;;;;5107345;28;20066;-42
2023/09/20 14:02:37;;;;;;;0.10;0.10;;;;;;;;;;5121720;28;20048;-42
2023/09/20 14:05:09;;;;;;;0.10;0.10;;;;;;;;;;5125144;28;20095;-42
2023/09/20 14:07:35;;;;;;;0.10;0.10;;;;;;;;;;5125390;28;20074;-41
2023/09/20 14:10:00;;;;;;;0.10;0.10;;;;;;;;;;5125027;28;20054;-41
2023/09/20 14:12:26;;;;;;;0.10;0.10;;;;;;;;;;5126260;28;20476;-46
2023/09/20 14:14:51;;;;;;;0.10;0.10;;;;;;;;;;5125917;28;20094;-41
2023/09/20 14:17:17;;;;;;;0.10;0.10;;;;;;;;;;5126277;28;20103;-41
2023/09/20 14:19:43;;;;;;;0.10;0.10;;;;;;;;;;5125100;28;20053;-44
2023/09/20 14:22:11;;;;;;;0.10;0.10;;;;;;;;;;5124065;28;20316;-42
2023/09/20 14:24:36;;;;;;;0.20;0.20;;;;;;;;;;5123464;28;20123;-42
2023/09/20 14:27:02;;;;;;;0.10;0.10;;;;;;;;;;5126047;27;20523;-44
2023/09/20 14:29:28;;;;;;;0.10;0.10;;;;;;;;;;5127342;27;20085;-43
2023/09/20 14:31:53;;;;;;;0.10;0.10;;;;;;;;;;5125065;28;20054;-41
2023/09/20 14:34:21;;;;;;;0.10;0.10;;;;;;;;;;5124170;28;20043;-41
2023/09/20 14:36:47;;;;;;;0.10;0.10;;;;;;;;;;5125218;27;20483;-43
2023/09/20 14:39:13;;;;;;;0.10;0.10;;;;;;;;;;5134189;27;20307;-44
2023/09/20 14:41:39;;;;;;;0.10;0.10;;;;;;;;;;5125093;27;20263;-42
2023/09/20 14:44:05;;;;;;;0.10;0.10;;;;;;;;;;5123247;28;20054;-42
2023/09/20 14:46:34;;;;;;;0.10;0.10;;;;;;;;;;5124916;28;20047;-42
2023/09/20 14:49:01;;;;;;;0.10;0.10;;;;;;;;;;5124877;28;20074;-42
2023/09/20 14:51:27;;;;;;;0.10;0.10;;;;;;;;;;5124693;28;20550;-41
2023/09/20 14:53:53;;;;;;;0.10;0.10;;;;;;;;;;5125446;28;20126;-43
2023/09/20 14:56:19;;;;;;;0.10;0.10;;;;;;;;;;5124434;28;20047;-43
2023/09/20 14:58:45;;;;;;;0.10;0.10;;;;;;;;;;5126681;28;20100;-42
2023/09/20 15:01:12;;;;;;;0.10;0.10;;;;;;;;;;5125808;28;20092;-42
2023/09/20 15:03:39;;;;;;;0.10;0.10;;;;;;;;;;5125781;28;20290;-42
2023/09/20 15:06:07;;;;;;;0.10;0.10;;;;;;;;;;5104896;28;20048;-44
2023/09/20 15:08:32;;;;;;;;;;;;;;;;;;5124209;28;20538;-43
2023/09/20 15:10:58;;;;;;;0.10;0.10;;;;;;;;;;5126455;28;19970;-43
2023/09/20 15:13:24;;;;;;;0.10;0.10;;;;;;;;;;5126696;28;20055;-41
2023/09/20 15:15:49;;;;;;;0.10;0.10;;;;;;;;;;5126614;28;20336;-43
2023/09/20 15:18:15;;;;;;;0.10;0.10;;;;;;;;;;5126776;28;20054;-41
2023/09/20 15:20:42;;;;;;;0.10;0.10;;;;;;;;;;5126535;28;20076;-43
2023/09/20 15:23:07;;;;;;;0.10;0.10;;;;;;;;;;5107534;28;20055;-42